createdAt,value
2019-01-10T00:00:13.052Z,46.00
2019-01-10T00:02:41.677Z,46.00
2019-01-10T00:05:13.275Z,46.00
2019-01-10T00:07:41.925Z,45.40
2019-01-10T00:10:14.070Z,45.60
2019-01-10T00:12:42.563Z,45.80
2019-01-10T00:15:18.065Z,45.80
2019-01-10T00:17:46.934Z,45.80
2019-01-10T00:20:18.314Z,45.80
2019-01-10T00:22:46.622Z,45.80
2019-01-10T00:25:15.189Z,45.90
2019-01-10T00:27:43.494Z,46.00
2019-01-10T00:30:20.698Z,46.20
2019-01-10T00:32:49.261Z,46.10
2019-01-10T00:35:17.844Z,46.30
2019-01-10T00:37:46.128Z,46.40
2019-01-10T00:40:17.548Z,46.50
2019-01-10T00:42:49.526Z,46.10
2019-01-10T00:45:16.962Z,45.80
2019-01-10T00:47:46.570Z,45.80
2019-01-10T00:50:20.641Z,45.90
2019-01-10T00:52:48.933Z,45.90
2019-01-10T00:55:17.225Z,45.70
2019-01-10T00:57:45.850Z,45.70
2019-01-10T01:00:20.377Z,45.40
2019-01-10T01:02:48.670Z,45.20
2019-01-10T01:05:17.236Z,45.10
2019-01-10T01:07:45.769Z,45.10
2019-01-10T01:10:17.069Z,44.90
2019-01-10T01:12:45.346Z,44.70
2019-01-10T01:15:15.693Z,44.90
2019-01-10T01:17:44.251Z,45.10
2019-01-10T01:20:14.892Z,45.10
2019-01-10T01:22:43.305Z,45.20
2019-01-10T01:25:12.470Z,45.20
2019-01-10T01:27:41.043Z,45.10
2019-01-10T01:30:17.376Z,45.00
2019-01-10T01:32:45.662Z,44.40
2019-01-10T01:35:14.884Z,44.30
2019-01-10T01:37:43.165Z,43.70
2019-01-10T01:40:14.813Z,44.10
2019-01-10T01:42:43.502Z,44.00
2019-01-10T01:45:13.127Z,44.30
2019-01-10T01:47:43.934Z,43.50
2019-01-10T01:50:15.549Z,43.60
2019-01-10T01:52:44.266Z,43.80
2019-01-10T01:55:12.746Z,43.80
2019-01-10T01:57:41.351Z,43.60
2019-01-10T02:00:12.846Z,43.60
2019-01-10T02:02:41.591Z,44.00
2019-01-10T02:05:10.178Z,44.00
2019-01-10T02:07:38.463Z,44.00
2019-01-10T02:10:21.858Z,44.00
2019-01-10T02:12:50.569Z,43.80
2019-01-10T02:15:21.797Z,43.50
2019-01-10T02:17:50.150Z,41.90
2019-01-10T02:20:18.453Z,41.70
2019-01-10T02:22:47.055Z,41.90
2019-01-10T02:25:16.401Z,41.90
2019-01-10T02:27:44.684Z,41.90
2019-01-10T02:30:18.232Z,41.70
2019-01-10T02:32:46.816Z,41.70
2019-01-10T02:35:15.366Z,41.70
2019-01-10T02:37:43.670Z,41.80
2019-01-10T02:40:12.262Z,41.70
2019-01-10T02:42:40.546Z,41.70
2019-01-10T02:45:12.194Z,41.60
2019-01-10T02:47:40.483Z,41.60
2019-01-10T02:50:12.330Z,41.90
2019-01-10T02:52:40.927Z,41.80
2019-01-10T02:55:09.731Z,41.70
2019-01-10T02:57:38.300Z,41.70
2019-01-10T03:00:18.558Z,41.80
2019-01-10T03:02:47.435Z,41.80
2019-01-10T03:05:15.728Z,41.50
2019-01-10T03:07:44.034Z,41.60
2019-01-10T03:10:15.575Z,41.70
2019-01-10T03:12:44.253Z,41.70
2019-01-10T03:15:12.620Z,41.80
2019-01-10T03:17:41.190Z,41.50
2019-01-10T03:20:12.842Z,41.70
2019-01-10T03:22:41.215Z,41.40
2019-01-10T03:25:09.530Z,41.60
2019-01-10T03:27:38.083Z,41.50
2019-01-10T03:30:12.210Z,41.40
2019-01-10T03:32:40.636Z,41.40
2019-01-10T03:35:09.911Z,41.60
2019-01-10T03:37:38.208Z,41.40
2019-01-10T03:40:09.769Z,41.40
2019-01-10T03:42:38.047Z,41.40
2019-01-10T03:45:09.630Z,41.40
2019-01-10T03:47:38.230Z,41.20
2019-01-10T03:50:09.247Z,41.30
2019-01-10T03:52:37.855Z,41.50
2019-01-10T03:55:06.400Z,41.40
2019-01-10T03:57:34.703Z,41.30
2019-01-10T04:00:05.327Z,41.50
2019-01-10T04:02:33.922Z,41.60
2019-01-10T04:05:02.223Z,41.30
2019-01-10T04:07:30.502Z,41.30
2019-01-10T04:09:58.802Z,41.40
2019-01-10T04:12:27.097Z,41.30
2019-01-10T04:14:55.724Z,41.20
2019-01-10T04:17:24.010Z,41.30
2019-01-10T04:19:52.579Z,41.30
2019-01-10T04:22:20.876Z,41.40
2019-01-10T04:24:49.446Z,41.10
2019-01-10T04:27:17.828Z,41.90
2019-01-10T04:29:46.402Z,41.30
2019-01-10T04:32:14.987Z,40.90
2019-01-10T04:34:43.568Z,41.00
2019-01-10T04:37:11.866Z,41.20
2019-01-10T04:39:40.141Z,41.10
2019-01-10T04:42:08.706Z,41.10
2019-01-10T04:44:37.003Z,41.30
2019-01-10T04:47:05.566Z,41.30
2019-01-10T04:49:33.953Z,41.30
2019-01-10T04:52:02.644Z,41.20
2019-01-10T04:54:31.214Z,41.40
2019-01-10T04:56:59.798Z,41.20
2019-01-10T04:59:28.110Z,41.40
2019-01-10T05:01:56.653Z,41.30
2019-01-10T05:04:25.268Z,41.20
2019-01-10T05:06:53.622Z,41.10
2019-01-10T05:09:22.206Z,41.40
2019-01-10T05:11:50.529Z,41.30
2019-01-10T05:14:18.814Z,41.30
2019-01-10T05:16:47.117Z,41.30
2019-01-10T05:19:15.722Z,41.30
2019-01-10T05:21:44.301Z,41.30
2019-01-10T05:24:12.610Z,41.20
2019-01-10T05:26:41.179Z,41.20
2019-01-10T05:29:09.554Z,41.40
2019-01-10T05:31:37.830Z,41.90
2019-01-10T05:34:06.122Z,41.20
2019-01-10T05:36:34.681Z,41.20
2019-01-10T05:39:03.734Z,41.30
2019-01-10T05:41:32.020Z,41.30
2019-01-10T05:44:00.635Z,41.40
2019-01-10T05:46:29.230Z,41.10
2019-01-10T05:48:57.510Z,41.10
2019-01-10T05:51:25.829Z,41.20
2019-01-10T05:53:54.166Z,41.40
2019-01-10T05:56:22.458Z,41.30
2019-01-10T05:58:51.014Z,41.20
2019-01-10T06:01:19.604Z,41.40
2019-01-10T06:03:53.162Z,41.30
2019-01-10T06:06:17.914Z,41.20
2019-01-10T06:08:46.478Z,41.20
2019-01-10T06:11:14.754Z,41.30
2019-01-10T06:13:43.336Z,41.40
2019-01-10T06:16:11.626Z,41.30
2019-01-10T06:18:40.190Z,41.20
2019-01-10T06:21:08.472Z,41.20
2019-01-10T06:23:36.758Z,41.10
2019-01-10T06:26:05.326Z,41.20
2019-01-10T06:28:33.615Z,41.30
2019-01-10T06:31:01.902Z,41.40
2019-01-10T06:33:30.191Z,41.40
2019-01-10T06:35:58.569Z,41.30
2019-01-10T06:38:29.991Z,41.30
2019-01-10T06:40:58.570Z,41.30
2019-01-10T06:43:26.859Z,41.20
2019-01-10T06:45:55.155Z,41.20
2019-01-10T06:48:23.451Z,41.30
2019-01-10T06:50:51.997Z,41.30
2019-01-10T06:53:20.282Z,41.20
2019-01-10T06:55:48.623Z,41.20
2019-01-10T06:58:17.226Z,41.20
2019-01-10T07:00:45.536Z,41.30
2019-01-10T07:03:13.928Z,41.30
2019-01-10T07:05:42.206Z,41.30
2019-01-10T07:08:10.858Z,41.30
2019-01-10T07:10:39.433Z,41.30
2019-01-10T07:13:08.015Z,41.30
2019-01-10T07:15:36.591Z,41.30
2019-01-10T07:18:04.923Z,41.30
2019-01-10T07:20:37.678Z,41.20
2019-01-10T07:23:06.081Z,41.20
2019-01-10T07:25:34.767Z,41.40
2019-01-10T07:28:09.605Z,41.30
2019-01-10T07:30:37.980Z,41.30
2019-01-10T07:33:06.262Z,41.30
2019-01-10T07:35:34.891Z,41.20
2019-01-10T07:38:03.182Z,41.20
2019-01-10T07:40:33.107Z,41.20
2019-01-10T07:43:01.387Z,41.20
2019-01-10T07:45:29.685Z,41.20
2019-01-10T07:47:58.219Z,41.20
2019-01-10T07:50:30.032Z,41.30
2019-01-10T07:52:58.308Z,41.40
2019-01-10T07:55:26.938Z,41.40
2019-01-10T07:57:55.523Z,42.00
2019-01-10T08:00:24.106Z,41.30
2019-01-10T08:02:52.383Z,41.30
2019-01-10T08:05:20.981Z,41.30
2019-01-10T08:07:49.268Z,41.30
2019-01-10T08:10:17.566Z,41.30
2019-01-10T08:12:46.107Z,41.40
2019-01-10T08:15:17.137Z,41.30
2019-01-10T08:17:45.552Z,41.70
2019-01-10T08:20:14.672Z,42.00
2019-01-10T08:22:43.425Z,42.00
2019-01-10T08:25:11.990Z,42.10
2019-01-10T08:27:40.584Z,42.40
2019-01-10T08:30:18.172Z,42.70
2019-01-10T08:32:46.760Z,42.70
2019-01-10T08:35:17.011Z,42.70
2019-01-10T08:37:45.307Z,43.00
2019-01-10T08:40:13.590Z,43.20
2019-01-10T08:42:42.244Z,43.30
2019-01-10T08:45:11.389Z,43.20
2019-01-10T08:47:39.715Z,43.30
2019-01-10T08:50:11.296Z,43.30
2019-01-10T08:52:39.642Z,43.30
2019-01-10T08:55:08.315Z,43.10
2019-01-10T08:57:36.622Z,43.20
2019-01-10T09:00:09.706Z,43.10
2019-01-10T09:02:38.478Z,43.30
2019-01-10T09:05:07.262Z,43.80
2019-01-10T09:07:35.570Z,43.20
2019-01-10T09:10:05.967Z,43.30
2019-01-10T09:12:34.542Z,43.20
2019-01-10T09:15:03.146Z,43.10
2019-01-10T09:17:31.454Z,43.10
2019-01-10T09:19:59.743Z,43.20
2019-01-10T09:22:28.054Z,43.30
2019-01-10T09:24:56.337Z,43.30
2019-01-10T09:27:24.919Z,43.30
2019-01-10T09:29:53.225Z,43.30
2019-01-10T09:32:21.519Z,43.20
2019-01-10T09:34:50.166Z,43.20
2019-01-10T09:37:18.748Z,43.10
2019-01-10T09:39:47.030Z,43.20
2019-01-10T09:42:15.342Z,43.40
2019-01-10T09:44:47.655Z,43.30
2019-01-10T09:47:15.994Z,43.40
2019-01-10T09:49:44.279Z,43.60
2019-01-10T09:52:12.909Z,43.50
2019-01-10T09:54:41.199Z,43.50
2019-01-10T09:57:09.506Z,43.40
2019-01-10T09:59:38.250Z,43.50
2019-01-10T10:02:06.562Z,43.40
2019-01-10T10:04:34.849Z,43.30
2019-01-10T10:07:03.495Z,43.10
2019-01-10T10:09:32.070Z,43.30
2019-01-10T10:12:00.655Z,43.20
2019-01-10T10:14:28.938Z,43.30
2019-01-10T10:16:57.524Z,43.40
2019-01-10T10:19:26.103Z,43.30
2019-01-10T10:21:54.435Z,43.20
2019-01-10T10:24:22.717Z,43.30
2019-01-10T10:26:51.004Z,43.40
2019-01-10T10:29:19.626Z,43.50
2019-01-10T10:31:48.202Z,43.70
2019-01-10T10:34:16.490Z,43.40
2019-01-10T10:36:45.062Z,43.30
2019-01-10T10:39:13.365Z,43.20
2019-01-10T10:41:42.023Z,43.40
2019-01-10T10:44:10.315Z,43.60
2019-01-10T10:46:38.639Z,43.70
2019-01-10T10:49:06.923Z,43.90
2019-01-10T10:51:35.240Z,43.90
2019-01-10T10:54:03.551Z,44.50
2019-01-10T10:56:32.195Z,45.00
2019-01-10T10:59:00.777Z,44.80
2019-01-10T11:01:29.362Z,44.80
2019-01-10T11:03:57.662Z,44.50
2019-01-10T11:06:26.229Z,44.50
2019-01-10T11:08:54.811Z,44.40
2019-01-10T11:11:23.110Z,44.20
2019-01-10T11:13:51.415Z,44.20
2019-01-10T11:16:19.711Z,44.10
2019-01-10T11:18:48.322Z,44.20
2019-01-10T11:21:16.617Z,44.50
2019-01-10T11:23:44.933Z,44.60
2019-01-10T11:26:13.562Z,44.50
2019-01-10T11:28:42.143Z,44.40
2019-01-10T11:31:10.752Z,44.50
2019-01-10T11:33:39.048Z,44.40
2019-01-10T11:36:07.378Z,44.30
2019-01-10T11:38:35.980Z,44.30
2019-01-10T11:41:04.417Z,44.40
2019-01-10T11:43:32.701Z,44.50
2019-01-10T11:46:01.321Z,44.70
2019-01-10T11:48:29.893Z,44.70
2019-01-10T11:50:58.207Z,44.70
2019-01-10T11:53:35.278Z,44.70
2019-01-10T11:55:56.884Z,44.80
2019-01-10T11:58:25.431Z,44.70
2019-01-10T12:00:55.369Z,44.70
2019-01-10T12:03:23.686Z,44.50
2019-01-10T12:05:53.100Z,44.20
2019-01-10T12:08:21.759Z,44.10
2019-01-10T12:10:50.090Z,44.40
2019-01-10T12:13:18.438Z,44.50
2019-01-10T12:15:47.083Z,44.60
2019-01-10T12:18:15.661Z,44.70
2019-01-10T12:20:43.966Z,44.60
2019-01-10T12:23:12.256Z,44.50
2019-01-10T12:25:41.008Z,44.30
2019-01-10T12:28:09.587Z,44.30
2019-01-10T12:30:37.894Z,44.40
2019-01-10T12:33:06.456Z,44.60
2019-01-10T12:35:34.754Z,44.70
2019-01-10T12:38:03.055Z,44.70
2019-01-10T12:40:31.353Z,44.60
2019-01-10T12:42:59.638Z,44.90
2019-01-10T12:45:27.950Z,45.00
2019-01-10T12:47:56.511Z,45.20
2019-01-10T12:50:27.503Z,45.60
2019-01-10T12:52:55.883Z,45.90
2019-01-10T12:55:24.189Z,46.10
2019-01-10T12:57:52.799Z,46.50
2019-01-10T13:00:24.873Z,46.70
2019-01-10T13:02:55.081Z,46.70
2019-01-10T13:05:23.670Z,47.00
2019-01-10T13:07:51.963Z,47.10
2019-01-10T13:10:20.542Z,47.40
2019-01-10T13:12:49.320Z,49.20
2019-01-10T13:15:22.952Z,48.80
2019-01-10T13:17:51.505Z,48.20
2019-01-10T13:20:19.862Z,48.00
2019-01-10T13:22:48.172Z,48.10
2019-01-10T13:25:18.300Z,47.90
2019-01-10T13:27:46.866Z,47.70
2019-01-10T13:30:17.294Z,47.70
2019-01-10T13:32:45.591Z,47.80
2019-01-10T13:35:13.982Z,47.80
2019-01-10T13:37:42.526Z,47.70
2019-01-10T13:40:12.049Z,47.50
2019-01-10T13:42:40.618Z,47.40
2019-01-10T13:45:11.218Z,47.10
2019-01-10T13:47:39.515Z,47.10
2019-01-10T13:50:11.469Z,47.10
2019-01-10T13:52:40.104Z,46.80
2019-01-10T13:55:11.417Z,46.60
2019-01-10T13:57:39.711Z,46.60
2019-01-10T14:00:14.064Z,46.30
2019-01-10T14:02:42.804Z,46.30
2019-01-10T14:05:11.106Z,46.00
2019-01-10T14:07:39.676Z,46.00
2019-01-10T14:10:13.776Z,46.30
2019-01-10T14:12:42.359Z,46.40
2019-01-10T14:15:13.960Z,46.30
2019-01-10T14:17:42.259Z,46.80
2019-01-10T14:20:12.385Z,47.10
2019-01-10T14:22:41.001Z,47.10
2019-01-10T14:25:09.682Z,48.10
2019-01-10T14:27:37.995Z,49.30
2019-01-10T14:30:12.996Z,49.50
2019-01-10T14:32:41.583Z,50.00
2019-01-10T14:35:10.164Z,49.60
2019-01-10T14:37:38.742Z,49.10
2019-01-10T14:40:09.526Z,49.20
2019-01-10T14:42:37.807Z,49.20
2019-01-10T14:45:09.823Z,49.20
2019-01-10T14:47:38.110Z,49.10
2019-01-10T14:50:08.646Z,49.50
2019-01-10T14:52:36.939Z,49.30
2019-01-10T14:55:11.465Z,49.40
2019-01-10T14:57:39.750Z,49.50
2019-01-10T15:00:13.938Z,49.80
2019-01-10T15:02:42.266Z,49.70
2019-01-10T15:05:10.782Z,49.70
2019-01-10T15:07:39.077Z,49.40
2019-01-10T15:10:09.298Z,48.90
2019-01-10T15:12:37.582Z,48.80
2019-01-10T15:15:14.569Z,48.30
2019-01-10T15:17:44.239Z,48.00
2019-01-10T15:20:15.243Z,47.80
2019-01-10T15:22:43.871Z,48.30
2019-01-10T15:25:12.176Z,47.60
2019-01-10T15:27:40.472Z,47.40
2019-01-10T15:30:14.922Z,47.30
2019-01-10T15:32:43.245Z,47.30
2019-01-10T15:35:11.574Z,47.50
2019-01-10T15:37:40.187Z,47.50
2019-01-10T15:40:14.710Z,47.50
2019-01-10T15:42:43.013Z,47.80
2019-01-10T15:45:11.378Z,47.80
2019-01-10T15:47:39.958Z,47.80
2019-01-10T15:50:11.663Z,47.70
2019-01-10T15:52:39.955Z,47.50
2019-01-10T15:55:10.842Z,47.20
2019-01-10T15:57:39.148Z,47.30
2019-01-10T16:00:11.058Z,47.30
2019-01-10T16:02:39.658Z,47.30
2019-01-10T16:05:08.330Z,47.40
2019-01-10T16:07:36.636Z,47.60
2019-01-10T16:10:08.997Z,47.40
2019-01-10T16:12:37.307Z,47.30
2019-01-10T16:15:11.860Z,47.20
2019-01-10T16:17:40.214Z,47.00
2019-01-10T16:20:10.743Z,47.00
2019-01-10T16:22:39.379Z,47.20
2019-01-10T16:25:11.900Z,47.30
2019-01-10T16:27:40.435Z,47.60
2019-01-10T16:30:12.250Z,47.30
2019-01-10T16:32:40.984Z,47.80
2019-01-10T16:35:09.566Z,47.80
2019-01-10T16:37:38.148Z,47.80
2019-01-10T16:40:09.497Z,47.80
2019-01-10T16:42:37.806Z,47.90
2019-01-10T16:45:09.942Z,47.90
2019-01-10T16:47:38.818Z,47.70
2019-01-10T16:50:10.605Z,47.60
2019-01-10T16:52:39.298Z,47.30
2019-01-10T16:55:09.121Z,47.30
2019-01-10T16:57:37.448Z,47.10
2019-01-10T17:00:11.985Z,47.00
2019-01-10T17:02:40.318Z,46.90
2019-01-10T17:05:08.651Z,46.60
2019-01-10T17:07:37.079Z,47.30
2019-01-10T17:10:07.845Z,46.90
2019-01-10T17:12:36.180Z,47.00
2019-01-10T17:15:07.650Z,47.10
2019-01-10T17:17:37.794Z,47.20
2019-01-10T17:20:09.289Z,46.80
2019-01-10T17:22:37.865Z,47.30
2019-01-10T17:25:07.091Z,47.20
2019-01-10T17:27:35.393Z,47.10
2019-01-10T17:30:05.388Z,46.90
2019-01-10T17:32:33.680Z,47.10
2019-01-10T17:35:02.056Z,46.70
2019-01-10T17:37:30.675Z,46.80
2019-01-10T17:39:59.265Z,47.20
2019-01-10T17:42:27.925Z,47.40
2019-01-10T17:44:56.230Z,47.60
2019-01-10T17:47:24.810Z,47.80
2019-01-10T17:49:53.118Z,48.40
2019-01-10T17:52:25.052Z,48.60
2019-01-10T17:54:51.714Z,49.20
2019-01-10T17:57:20.017Z,49.90
2019-01-10T17:59:48.569Z,50.10
2019-01-10T18:02:16.879Z,50.10
2019-01-10T18:04:45.227Z,50.20
2019-01-10T18:07:13.534Z,50.30
2019-01-10T18:09:42.180Z,50.40
2019-01-10T18:12:10.856Z,50.30
2019-01-10T18:14:39.150Z,50.40
2019-01-10T18:17:07.838Z,50.10
2019-01-10T18:19:39.483Z,49.50
2019-01-10T18:22:08.049Z,49.20
2019-01-10T18:24:37.808Z,49.00
2019-01-10T18:27:06.451Z,48.90
2019-01-10T18:29:37.726Z,48.80
2019-01-10T18:32:06.158Z,48.90
2019-01-10T18:34:34.748Z,48.80
2019-01-10T18:37:03.339Z,48.90
2019-01-10T18:39:34.622Z,49.00
2019-01-10T18:42:03.179Z,48.70
2019-01-10T18:44:31.758Z,48.70
2019-01-10T18:47:00.858Z,48.80
2019-01-10T18:49:29.439Z,48.70
2019-01-10T18:51:57.755Z,48.70
2019-01-10T18:54:26.400Z,48.50
2019-01-10T18:56:54.688Z,48.50
2019-01-10T18:59:23.358Z,48.40
2019-01-10T19:01:51.650Z,48.50
2019-01-10T19:04:19.960Z,48.50
2019-01-10T19:06:48.607Z,48.60
2019-01-10T19:09:17.201Z,48.30
2019-01-10T19:11:45.554Z,48.20
2019-01-10T19:14:13.864Z,48.30
2019-01-10T19:16:42.423Z,48.20
2019-01-10T19:19:11.002Z,48.30
2019-01-10T19:21:39.306Z,48.40
2019-01-10T19:24:07.590Z,48.50
2019-01-10T19:26:36.245Z,48.30
2019-01-10T19:29:04.831Z,48.40
2019-01-10T19:31:33.416Z,48.50
2019-01-10T19:34:03.329Z,48.60
2019-01-10T19:36:33.980Z,48.80
2019-01-10T19:39:02.272Z,49.00
2019-01-10T19:41:30.578Z,48.60
2019-01-10T19:43:59.140Z,48.30
2019-01-10T19:46:27.783Z,48.50
2019-01-10T19:48:56.367Z,48.20
2019-01-10T19:51:24.925Z,48.10
2019-01-10T19:53:53.295Z,48.10
2019-01-10T19:56:21.627Z,48.10
2019-01-10T19:58:50.009Z,48.10
2019-01-10T20:01:21.179Z,48.20
2019-01-10T20:03:49.526Z,48.20
2019-01-10T20:06:21.163Z,48.40
2019-01-10T20:08:49.746Z,48.30
2019-01-10T20:11:18.056Z,48.40
2019-01-10T20:13:46.363Z,48.40
2019-01-10T20:16:16.364Z,48.10
2019-01-10T20:18:46.650Z,47.90
2019-01-10T20:21:14.951Z,47.90
2019-01-10T20:23:43.618Z,47.90
2019-01-10T20:26:13.927Z,47.90
2019-01-10T20:28:42.511Z,47.90
2019-01-10T20:31:10.998Z,48.00
2019-01-10T20:33:41.047Z,48.00
2019-01-10T20:36:09.696Z,48.00
2019-01-10T20:38:38.014Z,47.80
2019-01-10T20:41:06.562Z,47.60
2019-01-10T20:43:35.146Z,47.60
2019-01-10T20:46:05.367Z,47.50
2019-01-10T20:48:38.346Z,47.30
2019-01-10T20:51:09.586Z,47.50
2019-01-10T20:53:38.075Z,47.40
2019-01-10T20:56:06.419Z,47.50
2019-01-10T20:58:41.949Z,47.70
2019-01-10T21:01:10.794Z,47.70
2019-01-10T21:03:39.103Z,47.80
2019-01-10T21:06:10.952Z,47.90
2019-01-10T21:08:39.517Z,47.80
2019-01-10T21:11:07.838Z,47.90
2019-01-10T21:13:38.517Z,47.80
2019-01-10T21:16:06.811Z,47.80
2019-01-10T21:18:37.042Z,48.00
2019-01-10T21:21:05.606Z,48.00
2019-01-10T21:23:35.512Z,48.10
2019-01-10T21:26:04.215Z,48.10
2019-01-10T21:28:32.796Z,48.30
2019-01-10T21:31:01.649Z,48.20
2019-01-10T21:33:30.306Z,48.00
2019-01-10T21:35:59.866Z,48.00
2019-01-10T21:38:28.266Z,47.70
2019-01-10T21:40:56.553Z,47.70
2019-01-10T21:43:25.118Z,48.30
2019-01-10T21:45:53.699Z,47.80
2019-01-10T21:48:22.591Z,47.80
2019-01-10T21:50:56.945Z,48.00
2019-01-10T21:53:25.490Z,47.90
2019-01-10T21:55:57.654Z,48.00
2019-01-10T21:58:27.854Z,48.20
2019-01-10T22:00:56.147Z,48.00
2019-01-10T22:03:24.538Z,48.60
2019-01-10T22:05:53.122Z,48.00
2019-01-10T22:08:27.966Z,48.00
2019-01-10T22:10:56.652Z,48.00
2019-01-10T22:13:26.976Z,48.20
2019-01-10T22:15:55.298Z,48.20
2019-01-10T22:18:24.513Z,48.10
2019-01-10T22:20:52.826Z,47.90
2019-01-10T22:23:21.123Z,47.80
2019-01-10T22:25:49.771Z,47.60
2019-01-10T22:28:18.316Z,47.60
2019-01-10T22:30:48.272Z,47.60
2019-01-10T22:33:22.735Z,47.50
2019-01-10T22:35:51.401Z,47.70
2019-01-10T22:38:19.969Z,48.00
2019-01-10T22:40:48.553Z,48.10
2019-01-10T22:43:19.278Z,48.20
2019-01-10T22:45:52.026Z,48.30
2019-01-10T22:48:20.408Z,48.40
2019-01-10T22:50:48.730Z,48.30
2019-01-10T22:53:17.300Z,48.40
2019-01-10T22:55:45.590Z,48.50
2019-01-10T22:58:14.275Z,48.50
2019-01-10T23:00:56.479Z,48.60
2019-01-10T23:03:24.803Z,48.60
2019-01-10T23:05:53.095Z,48.70
2019-01-10T23:08:21.709Z,48.60
2019-01-10T23:10:50.322Z,48.70
2019-01-10T23:13:20.296Z,48.60
2019-01-10T23:15:50.220Z,48.60
2019-01-10T23:18:18.911Z,48.60
2019-01-10T23:20:55.153Z,48.60
2019-01-10T23:23:23.454Z,48.70
2019-01-10T23:25:55.431Z,48.80
2019-01-10T23:28:23.777Z,48.70
2019-01-10T23:30:57.909Z,48.40
2019-01-10T23:33:27.059Z,48.60
2019-01-10T23:36:00.191Z,48.40
2019-01-10T23:38:28.757Z,48.40
2019-01-10T23:40:57.775Z,48.40
2019-01-10T23:43:26.360Z,48.50
2019-01-10T23:45:56.686Z,48.30
2019-01-10T23:48:25.468Z,48.30
2019-01-10T23:50:54.089Z,48.30
2019-01-10T23:53:22.730Z,48.80
2019-01-10T23:55:51.331Z,48.20
2019-01-10T23:58:20.008Z,48.20
